Hovedside
METAR-TAF:

METAR-TAF

Lufthavner :

Villmanstrand lufthavn

Villmanstrand, Finland

breddegrad: 61-02-45N, lengdegrad: 028-08-55E, høyde over havet: 106 m

METAR: fraværende

Tid: 07:42 (04:42 UTC)

Varsel

Denne rapporten ble laget for 2 timer og 1 minutter siden, klokken 02:41 UTC
Varsel gyldig fra 14. klokken 03 UTC til 14. klokken 12 UTC
Vind 3 kt fra Øst-sørøst
Sikt 10 km eller mer
Spredte skyer i en høyde av 1500 ft
Brutte skyer i en høyde av 20000 ft
Sannsynlighet 40% :
Midlertidig
fra 14. klokken 03 UTC til 14. klokken 07 UTC
Brutte skyer i en høyde av 500 ft
Midlertidig
fra 14. klokken 09 UTC til 14. klokken 12 UTC
Sikt: 7000 m
Brutte skyer i en høyde av 1400 ft
lett regn

TAF: EFLP 140241Z 1403/1412 12003KT 9999 SCT015 BKN200 PROB40 TEMPO 1403/1407 BKN005 TEMPO 1409/1412 7000 -RA BKN014

Værobservasjoner og værvarsel for over 4000 flyplasser (METAR- og TAF-rapporter).

Tilgjengelige stasjoner er representert av de røde og gule prikkene på kartet.

Hold musepekeren over prikken for å se navnet på stasjonen.

Klikk så for å se værobservasjoner og -varsler.

For å forandre kartet kan du klikke på den grønne knappen med svart kryss for å zoome inn, på den grønne knappen med strek for å zoome ut, eller på de grønne pilene for å se tilstøtende kart.


METAR-TAF: